sensor_id;sensor_type;location;lat;lon;timestamp;temperature;humidity
28677;DHT22;15858;48.338;11.078;2022-09-01T00:01:37;16.40;99.90
28677;DHT22;15858;48.338;11.078;2022-09-01T00:04:05;16.40;99.90
28677;DHT22;15858;48.338;11.078;2022-09-01T00:06:32;16.40;99.90
28677;DHT22;15858;48.338;11.078;2022-09-01T00:09:02;16.30;99.90
28677;DHT22;15858;48.338;11.078;2022-09-01T00:11:31;16.30;99.90
28677;DHT22;15858;48.338;11.078;2022-09-01T00:14:00;16.30;99.90
28677;DHT22;15858;48.338;11.078;2022-09-01T00:16:27;16.30;99.90
28677;DHT22;15858;48.338;11.078;2022-09-01T00:18:56;16.30;99.90
28677;DHT22;15858;48.338;11.078;2022-09-01T00:21:29;16.40;99.90
28677;DHT22;15858;48.338;11.078;2022-09-01T00:23:56;16.30;99.90
28677;DHT22;15858;48.338;11.078;2022-09-01T00:26:23;16.40;99.90
28677;DHT22;15858;48.338;11.078;2022-09-01T00:28:50;16.40;99.90
28677;DHT22;15858;48.338;11.078;2022-09-01T00:31:17;16.50;99.90
28677;DHT22;15858;48.338;11.078;2022-09-01T00:33:45;16.40;99.90
28677;DHT22;15858;48.338;11.078;2022-09-01T00:36:12;16.40;99.90
28677;DHT22;15858;48.338;11.078;2022-09-01T00:38:38;16.40;99.90
28677;DHT22;15858;48.338;11.078;2022-09-01T00:41:06;16.40;99.90
28677;DHT22;15858;48.338;11.078;2022-09-01T00:43:47;16.40;99.90
28677;DHT22;15858;48.338;11.078;2022-09-01T00:46:20;16.30;99.90
28677;DHT22;15858;48.338;11.078;2022-09-01T00:48:55;16.20;99.90
28677;DHT22;15858;48.338;11.078;2022-09-01T00:51:22;16.20;99.90
28677;DHT22;15858;48.338;11.078;2022-09-01T00:53:49;16.20;99.90
28677;DHT22;15858;48.338;11.078;2022-09-01T00:56:17;16.10;99.90
28677;DHT22;15858;48.338;11.078;2022-09-01T00:58:44;16.10;99.90
28677;DHT22;15858;48.338;11.078;2022-09-01T01:01:11;16.10;99.90
28677;DHT22;15858;48.338;11.078;2022-09-01T01:03:38;16.10;99.90
28677;DHT22;15858;48.338;11.078;2022-09-01T01:06:07;16.00;99.90
28677;DHT22;15858;48.338;11.078;2022-09-01T01:08:37;16.00;99.90
28677;DHT22;15858;48.338;11.078;2022-09-01T01:11:12;16.00;99.90
28677;DHT22;15858;48.338;11.078;2022-09-01T01:13:55;16.10;99.90
28677;DHT22;15858;48.338;11.078;2022-09-01T01:16:24;16.00;99.90
28677;DHT22;15858;48.338;11.078;2022-09-01T01:18:51;15.90;99.90
28677;DHT22;15858;48.338;11.078;2022-09-01T01:21:37;15.90;99.90
28677;DHT22;15858;48.338;11.078;2022-09-01T01:24:20;15.90;99.90
28677;DHT22;15858;48.338;11.078;2022-09-01T01:26:47;15.90;99.90
28677;DHT22;15858;48.338;11.078;2022-09-01T01:29:14;15.90;99.90
28677;DHT22;15858;48.338;11.078;2022-09-01T01:31:40;15.90;99.90
28677;DHT22;15858;48.338;11.078;2022-09-01T01:34:07;15.90;99.90
28677;DHT22;15858;48.338;11.078;2022-09-01T01:36:36;15.90;99.90
28677;DHT22;15858;48.338;11.078;2022-09-01T01:39:10;15.90;99.90
28677;DHT22;15858;48.338;11.078;2022-09-01T01:41:39;15.90;99.90
28677;DHT22;15858;48.338;11.078;2022-09-01T01:44:06;15.80;99.90
28677;DHT22;15858;48.338;11.078;2022-09-01T01:46:35;15.90;99.90
28677;DHT22;15858;48.338;11.078;2022-09-01T01:49:02;15.80;99.90
28677;DHT22;15858;48.338;11.078;2022-09-01T01:51:29;16.00;99.90
28677;DHT22;15858;48.338;11.078;2022-09-01T01:53:57;16.00;99.90
28677;DHT22;15858;48.338;11.078;2022-09-01T01:56:24;16.00;99.90
28677;DHT22;15858;48.338;11.078;2022-09-01T01:58:52;15.90;99.90
28677;DHT22;15858;48.338;11.078;2022-09-01T02:01:20;15.90;99.90
28677;DHT22;15858;48.338;11.078;2022-09-01T02:03:47;16.00;99.90
28677;DHT22;15858;48.338;11.078;2022-09-01T02:06:13;16.00;99.90
28677;DHT22;15858;48.338;11.078;2022-09-01T02:08:40;16.00;99.90
28677;DHT22;15858;48.338;11.078;2022-09-01T02:11:08;15.90;99.90
28677;DHT22;15858;48.338;11.078;2022-09-01T02:13:34;15.90;99.90
28677;DHT22;15858;48.338;11.078;2022-09-01T02:16:04;15.90;99.90
28677;DHT22;15858;48.338;11.078;2022-09-01T02:18:34;15.80;99.90
28677;DHT22;15858;48.338;11.078;2022-09-01T02:21:06;15.80;99.90
28677;DHT22;15858;48.338;11.078;2022-09-01T02:23:33;15.80;99.90
28677;DHT22;15858;48.338;11.078;2022-09-01T02:25:59;15.80;99.90
28677;DHT22;15858;48.338;11.078;2022-09-01T02:28:45;15.80;99.90
28677;DHT22;15858;48.338;11.078;2022-09-01T02:31:17;15.80;99.90
28677;DHT22;15858;48.338;11.078;2022-09-01T02:33:44;15.70;99.90
28677;DHT22;15858;48.338;11.078;2022-09-01T02:36:13;15.70;99.90
28677;DHT22;15858;48.338;11.078;2022-09-01T02:38:41;15.70;99.90
28677;DHT22;15858;48.338;11.078;2022-09-01T02:41:12;15.70;99.90
28677;DHT22;15858;48.338;11.078;2022-09-01T02:43:39;15.80;99.90
28677;DHT22;15858;48.338;11.078;2022-09-01T02:46:06;15.70;99.90
28677;DHT22;15858;48.338;11.078;2022-09-01T02:48:36;15.70;99.90
28677;DHT22;15858;48.338;11.078;2022-09-01T02:51:06;15.70;99.90
28677;DHT22;15858;48.338;11.078;2022-09-01T02:53:34;15.80;99.90
28677;DHT22;15858;48.338;11.078;2022-09-01T02:56:02;15.70;99.90
28677;DHT22;15858;48.338;11.078;2022-09-01T02:58:30;15.70;99.90
28677;DHT22;15858;48.338;11.078;2022-09-01T03:00:56;15.70;99.90
28677;DHT22;15858;48.338;11.078;2022-09-01T03:03:24;15.70;99.90
28677;DHT22;15858;48.338;11.078;2022-09-01T03:05:52;15.70;99.90
28677;DHT22;15858;48.338;11.078;2022-09-01T03:08:18;15.70;99.90
28677;DHT22;15858;48.338;11.078;2022-09-01T03:10:45;15.80;99.90
28677;DHT22;15858;48.338;11.078;2022-09-01T03:13:14;15.90;99.90
28677;DHT22;15858;48.338;11.078;2022-09-01T03:15:42;15.80;99.90
28677;DHT22;15858;48.338;11.078;2022-09-01T03:18:10;15.70;99.90
28677;DHT22;15858;48.338;11.078;2022-09-01T03:20:40;15.70;99.90
28677;DHT22;15858;48.338;11.078;2022-09-01T03:23:09;15.70;99.90
28677;DHT22;15858;48.338;11.078;2022-09-01T03:25:36;15.70;99.90
28677;DHT22;15858;48.338;11.078;2022-09-01T03:28:04;15.70;99.90
28677;DHT22;15858;48.338;11.078;2022-09-01T03:30:33;15.60;99.90
28677;DHT22;15858;48.338;11.078;2022-09-01T03:33:01;15.70;99.90
28677;DHT22;15858;48.338;11.078;2022-09-01T03:35:29;15.70;99.90
28677;DHT22;15858;48.338;11.078;2022-09-01T03:37:55;15.60;99.90
28677;DHT22;15858;48.338;11.078;2022-09-01T03:40:22;15.60;99.90
28677;DHT22;15858;48.338;11.078;2022-09-01T03:42:49;15.60;99.90
28677;DHT22;15858;48.338;11.078;2022-09-01T03:45:16;15.60;99.90
28677;DHT22;15858;48.338;11.078;2022-09-01T03:47:42;15.50;99.90
28677;DHT22;15858;48.338;11.078;2022-09-01T03:50:13;15.60;99.90
28677;DHT22;15858;48.338;11.078;2022-09-01T03:52:40;15.60;99.90
28677;DHT22;15858;48.338;11.078;2022-09-01T03:55:07;15.60;99.90
28677;DHT22;15858;48.338;11.078;2022-09-01T03:57:34;15.50;99.90
28677;DHT22;15858;48.338;11.078;2022-09-01T04:00:03;15.50;99.90
28677;DHT22;15858;48.338;11.078;2022-09-01T04:02:30;15.60;99.90
28677;DHT22;15858;48.338;11.078;2022-09-01T04:04:57;15.50;99.90
28677;DHT22;15858;48.338;11.078;2022-09-01T04:07:23;15.50;99.90
28677;DHT22;15858;48.338;11.078;2022-09-01T04:09:50;15.50;99.90
28677;DHT22;15858;48.338;11.078;2022-09-01T04:12:17;15.40;99.90
28677;DHT22;15858;48.338;11.078;2022-09-01T04:14:43;15.40;99.90
28677;DHT22;15858;48.338;11.078;2022-09-01T04:17:10;15.40;99.90
28677;DHT22;15858;48.338;11.078;2022-09-01T04:19:36;15.40;99.90
28677;DHT22;15858;48.338;11.078;2022-09-01T04:22:04;15.30;99.90
28677;DHT22;15858;48.338;11.078;2022-09-01T04:24:31;15.30;99.90
28677;DHT22;15858;48.338;11.078;2022-09-01T04:27:00;15.30;99.90
28677;DHT22;15858;48.338;11.078;2022-09-01T04:29:29;15.30;99.90
28677;DHT22;15858;48.338;11.078;2022-09-01T04:31:59;15.40;99.90
28677;DHT22;15858;48.338;11.078;2022-09-01T04:34:27;15.40;99.90
28677;DHT22;15858;48.338;11.078;2022-09-01T04:36:54;15.40;99.90
28677;DHT22;15858;48.338;11.078;2022-09-01T04:39:21;15.40;99.90
28677;DHT22;15858;48.338;11.078;2022-09-01T04:41:48;15.40;99.90
28677;DHT22;15858;48.338;11.078;2022-09-01T04:44:16;15.40;99.90
28677;DHT22;15858;48.338;11.078;2022-09-01T04:46:44;15.30;99.90
28677;DHT22;15858;48.338;11.078;2022-09-01T04:49:11;15.30;99.90
28677;DHT22;15858;48.338;11.078;2022-09-01T04:51:43;15.30;99.90
28677;DHT22;15858;48.338;11.078;2022-09-01T04:54:11;15.30;99.90
28677;DHT22;15858;48.338;11.078;2022-09-01T04:56:39;15.30;99.90
28677;DHT22;15858;48.338;11.078;2022-09-01T04:59:07;15.30;99.90
28677;DHT22;15858;48.338;11.078;2022-09-01T05:01:34;15.30;99.90
28677;DHT22;15858;48.338;11.078;2022-09-01T05:04:01;15.40;99.90
28677;DHT22;15858;48.338;11.078;2022-09-01T05:06:29;15.40;99.90
28677;DHT22;15858;48.338;11.078;2022-09-01T05:08:56;15.40;99.90
28677;DHT22;15858;48.338;11.078;2022-09-01T05:11:22;15.40;99.90
28677;DHT22;15858;48.338;11.078;2022-09-01T05:13:49;15.40;99.90
28677;DHT22;15858;48.338;11.078;2022-09-01T05:16:18;15.40;99.90
28677;DHT22;15858;48.338;11.078;2022-09-01T05:18:51;15.40;99.90
28677;DHT22;15858;48.338;11.078;2022-09-01T05:21:20;15.40;99.90
28677;DHT22;15858;48.338;11.078;2022-09-01T05:23:47;15.40;99.90
28677;DHT22;15858;48.338;11.078;2022-09-01T05:26:16;15.30;99.90
28677;DHT22;15858;48.338;11.078;2022-09-01T05:28:44;15.40;99.90
28677;DHT22;15858;48.338;11.078;2022-09-01T05:31:11;15.30;99.90
28677;DHT22;15858;48.338;11.078;2022-09-01T05:33:38;15.30;99.90
28677;DHT22;15858;48.338;11.078;2022-09-01T05:36:05;15.40;99.90
28677;DHT22;15858;48.338;11.078;2022-09-01T05:38:32;15.50;99.90
28677;DHT22;15858;48.338;11.078;2022-09-01T05:41:02;15.50;99.90
28677;DHT22;15858;48.338;11.078;2022-09-01T05:43:30;15.50;99.90
28677;DHT22;15858;48.338;11.078;2022-09-01T05:45:57;15.70;99.90
28677;DHT22;15858;48.338;11.078;2022-09-01T05:48:34;15.60;99.90
28677;DHT22;15858;48.338;11.078;2022-09-01T05:51:04;15.50;99.90
28677;DHT22;15858;48.338;11.078;2022-09-01T05:53:48;15.60;99.90
28677;DHT22;15858;48.338;11.078;2022-09-01T05:56:18;15.50;99.90
28677;DHT22;15858;48.338;11.078;2022-09-01T05:58:45;15.50;99.90
28677;DHT22;15858;48.338;11.078;2022-09-01T06:01:33;15.60;99.90
28677;DHT22;15858;48.338;11.078;2022-09-01T06:04:01;15.60;99.90
28677;DHT22;15858;48.338;11.078;2022-09-01T06:06:29;15.70;99.90
28677;DHT22;15858;48.338;11.078;2022-09-01T06:09:15;15.90;99.90
28677;DHT22;15858;48.338;11.078;2022-09-01T06:11:43;15.90;99.90
28677;DHT22;15858;48.338;11.078;2022-09-01T06:14:10;15.80;99.90
28677;DHT22;15858;48.338;11.078;2022-09-01T06:16:37;16.00;99.90
28677;DHT22;15858;48.338;11.078;2022-09-01T06:19:04;15.90;99.90
28677;DHT22;15858;48.338;11.078;2022-09-01T06:21:30;16.00;99.90
28677;DHT22;15858;48.338;11.078;2022-09-01T06:23:57;15.80;99.90
28677;DHT22;15858;48.338;11.078;2022-09-01T06:26:30;15.80;99.90
28677;DHT22;15858;48.338;11.078;2022-09-01T06:28:59;15.80;99.90
28677;DHT22;15858;48.338;11.078;2022-09-01T06:31:28;15.80;99.90
28677;DHT22;15858;48.338;11.078;2022-09-01T06:33:55;15.70;99.90
28677;DHT22;15858;48.338;11.078;2022-09-01T06:36:22;15.80;99.90
28677;DHT22;15858;48.338;11.078;2022-09-01T06:38:50;15.90;99.90
28677;DHT22;15858;48.338;11.078;2022-09-01T06:41:18;15.90;99.90
28677;DHT22;15858;48.338;11.078;2022-09-01T06:43:49;16.00;99.90
28677;DHT22;15858;48.338;11.078;2022-09-01T06:46:17;16.00;99.90
28677;DHT22;15858;48.338;11.078;2022-09-01T06:48:43;16.00;99.90
28677;DHT22;15858;48.338;11.078;2022-09-01T06:51:17;16.00;99.90
28677;DHT22;15858;48.338;11.078;2022-09-01T06:53:49;16.00;99.90
28677;DHT22;15858;48.338;11.078;2022-09-01T06:56:17;16.00;99.90
28677;DHT22;15858;48.338;11.078;2022-09-01T06:58:45;16.00;99.90
28677;DHT22;15858;48.338;11.078;2022-09-01T07:01:15;16.00;99.90
28677;DHT22;15858;48.338;11.078;2022-09-01T07:03:43;16.00;99.90
28677;DHT22;15858;48.338;11.078;2022-09-01T07:06:10;16.30;99.90
28677;DHT22;15858;48.338;11.078;2022-09-01T07:08:58;16.30;99.90
28677;DHT22;15858;48.338;11.078;2022-09-01T07:11:45;16.30;99.90
28677;DHT22;15858;48.338;11.078;2022-09-01T07:14:32;16.30;99.90
28677;DHT22;15858;48.338;11.078;2022-09-01T07:16:58;16.30;99.90
28677;DHT22;15858;48.338;11.078;2022-09-01T07:19:45;16.20;99.90
28677;DHT22;15858;48.338;11.078;2022-09-01T07:22:15;16.30;99.90
28677;DHT22;15858;48.338;11.078;2022-09-01T07:25:01;16.30;99.90
28677;DHT22;15858;48.338;11.078;2022-09-01T07:27:48;16.20;99.90
28677;DHT22;15858;48.338;11.078;2022-09-01T07:30:21;16.20;99.90
28677;DHT22;15858;48.338;11.078;2022-09-01T07:32:50;16.30;99.90
28677;DHT22;15858;48.338;11.078;2022-09-01T07:35:20;16.30;99.90
28677;DHT22;15858;48.338;11.078;2022-09-01T07:37:47;16.20;99.90
28677;DHT22;15858;48.338;11.078;2022-09-01T07:40:36;16.20;99.90
28677;DHT22;15858;48.338;11.078;2022-09-01T07:43:24;16.20;99.90
28677;DHT22;15858;48.338;11.078;2022-09-01T07:45:56;16.30;99.90
28677;DHT22;15858;48.338;11.078;2022-09-01T07:48:26;16.40;99.90
28677;DHT22;15858;48.338;11.078;2022-09-01T07:51:13;16.40;99.90
28677;DHT22;15858;48.338;11.078;2022-09-01T07:54:00;16.40;99.90
28677;DHT22;15858;48.338;11.078;2022-09-01T07:56:27;16.50;99.90
28677;DHT22;15858;48.338;11.078;2022-09-01T07:58:55;16.50;99.90
28677;DHT22;15858;48.338;11.078;2022-09-01T08:01:24;16.40;99.90
28677;DHT22;15858;48.338;11.078;2022-09-01T08:03:54;16.40;99.90
28677;DHT22;15858;48.338;11.078;2022-09-01T08:06:23;16.40;99.90
28677;DHT22;15858;48.338;11.078;2022-09-01T08:08:55;16.60;99.90
28677;DHT22;15858;48.338;11.078;2022-09-01T08:11:26;16.60;99.90
28677;DHT22;15858;48.338;11.078;2022-09-01T08:14:13;16.50;99.90
28677;DHT22;15858;48.338;11.078;2022-09-01T08:16:40;16.50;99.90
28677;DHT22;15858;48.338;11.078;2022-09-01T08:19:17;16.40;99.90
28677;DHT22;15858;48.338;11.078;2022-09-01T08:21:44;16.50;99.90
28677;DHT22;15858;48.338;11.078;2022-09-01T08:24:10;16.50;99.90
28677;DHT22;15858;48.338;11.078;2022-09-01T08:26:37;16.40;99.90
28677;DHT22;15858;48.338;11.078;2022-09-01T08:29:04;16.30;99.90
28677;DHT22;15858;48.338;11.078;2022-09-01T08:31:30;16.20;99.90
28677;DHT22;15858;48.338;11.078;2022-09-01T08:33:57;16.30;99.90
28677;DHT22;15858;48.338;11.078;2022-09-01T08:36:24;16.30;99.90
28677;DHT22;15858;48.338;11.078;2022-09-01T08:38:51;16.30;99.90
28677;DHT22;15858;48.338;11.078;2022-09-01T08:44:18;16.50;99.90
28677;DHT22;15858;48.338;11.078;2022-09-01T08:46:48;16.60;99.90
28677;DHT22;15858;48.338;11.078;2022-09-01T08:49:21;16.70;99.90
28677;DHT22;15858;48.338;11.078;2022-09-01T08:52:18;16.70;99.90
28677;DHT22;15858;48.338;11.078;2022-09-01T08:54:50;16.80;99.90
28677;DHT22;15858;48.338;11.078;2022-09-01T08:57:23;16.80;99.90
28677;DHT22;15858;48.338;11.078;2022-09-01T08:59:51;16.70;99.90
28677;DHT22;15858;48.338;11.078;2022-09-01T09:10:59;16.90;99.90
28677;DHT22;15858;48.338;11.078;2022-09-01T09:16:44;17.20;99.90
28677;DHT22;15858;48.338;11.078;2022-09-01T09:19:38;17.20;99.90
28677;DHT22;15858;48.338;11.078;2022-09-01T09:22:07;17.30;99.90
28677;DHT22;15858;48.338;11.078;2022-09-01T09:27:24;17.50;99.90
28677;DHT22;15858;48.338;11.078;2022-09-01T09:29:54;17.60;99.90
28677;DHT22;15858;48.338;11.078;2022-09-01T09:32:24;17.60;99.90
28677;DHT22;15858;48.338;11.078;2022-09-01T09:35:38;17.60;99.90
28677;DHT22;15858;48.338;11.078;2022-09-01T09:41:01;18.20;99.90
28677;DHT22;15858;48.338;11.078;2022-09-01T09:43:57;18.30;99.90
28677;DHT22;15858;48.338;11.078;2022-09-01T09:51:39;18.40;99.90
28677;DHT22;15858;48.338;11.078;2022-09-01T09:56:48;18.90;99.90
28677;DHT22;15858;48.338;11.078;2022-09-01T09:59:27;19.20;99.90
28677;DHT22;15858;48.338;11.078;2022-09-01T10:02:31;19.40;99.90
28677;DHT22;15858;48.338;11.078;2022-09-01T10:05:22;19.70;99.90
28677;DHT22;15858;48.338;11.078;2022-09-01T10:07:48;19.70;99.90
28677;DHT22;15858;48.338;11.078;2022-09-01T10:10:40;19.80;99.90
28677;DHT22;15858;48.338;11.078;2022-09-01T10:13:11;19.90;99.90
28677;DHT22;15858;48.338;11.078;2022-09-01T10:15:40;20.10;99.90
28677;DHT22;15858;48.338;11.078;2022-09-01T10:18:15;20.50;99.90
28677;DHT22;15858;48.338;11.078;2022-09-01T10:21:09;20.60;99.90
28677;DHT22;15858;48.338;11.078;2022-09-01T10:23:37;20.70;99.90
28677;DHT22;15858;48.338;11.078;2022-09-01T10:26:15;20.70;99.90
28677;DHT22;15858;48.338;11.078;2022-09-01T10:32:18;20.80;99.90
28677;DHT22;15858;48.338;11.078;2022-09-01T10:35:05;21.00;99.90
28677;DHT22;15858;48.338;11.078;2022-09-01T10:37:33;21.10;99.90
28677;DHT22;15858;48.338;11.078;2022-09-01T10:40:18;21.00;99.90
28677;DHT22;15858;48.338;11.078;2022-09-01T10:43:21;20.90;99.90
28677;DHT22;15858;48.338;11.078;2022-09-01T10:45:46;20.80;99.90
28677;DHT22;15858;48.338;11.078;2022-09-01T10:48:32;20.70;99.90
28677;DHT22;15858;48.338;11.078;2022-09-01T10:53:55;20.70;99.90
28677;DHT22;15858;48.338;11.078;2022-09-01T10:56:41;20.90;99.90
28677;DHT22;15858;48.338;11.078;2022-09-01T11:02:17;21.40;99.90
28677;DHT22;15858;48.338;11.078;2022-09-01T11:07:34;21.90;99.90
28677;DHT22;15858;48.338;11.078;2022-09-01T11:13:27;21.90;99.90
28677;DHT22;15858;48.338;11.078;2022-09-01T11:15:56;21.50;99.90
28677;DHT22;15858;48.338;11.078;2022-09-01T11:27:08;21.30;99.90
28677;DHT22;15858;48.338;11.078;2022-09-01T11:29:58;21.20;99.90
28677;DHT22;15858;48.338;11.078;2022-09-01T11:32:30;21.50;99.90
28677;DHT22;15858;48.338;11.078;2022-09-01T11:35:01;21.30;99.90
28677;DHT22;15858;48.338;11.078;2022-09-01T11:37:31;21.10;99.90
28677;DHT22;15858;48.338;11.078;2022-09-01T11:40:00;20.70;99.90
28677;DHT22;15858;48.338;11.078;2022-09-01T11:42:32;20.90;99.90
28677;DHT22;15858;48.338;11.078;2022-09-01T11:50:04;20.90;99.90
28677;DHT22;15858;48.338;11.078;2022-09-01T11:52:36;20.90;99.90
28677;DHT22;15858;48.338;11.078;2022-09-01T11:55:06;21.20;99.90
28677;DHT22;15858;48.338;11.078;2022-09-01T11:57:37;21.20;99.90
28677;DHT22;15858;48.338;11.078;2022-09-01T12:00:12;21.00;99.90
28677;DHT22;15858;48.338;11.078;2022-09-01T12:02:48;20.90;99.90
28677;DHT22;15858;48.338;11.078;2022-09-01T12:07:50;21.60;99.90
28677;DHT22;15858;48.338;11.078;2022-09-01T12:15:38;21.60;99.90
28677;DHT22;15858;48.338;11.078;2022-09-01T12:18:32;21.50;99.90
28677;DHT22;15858;48.338;11.078;2022-09-01T12:21:00;21.30;99.90
28677;DHT22;15858;48.338;11.078;2022-09-01T12:23:30;21.60;99.90
28677;DHT22;15858;48.338;11.078;2022-09-01T12:26:00;21.90;99.90
28677;DHT22;15858;48.338;11.078;2022-09-01T12:28:29;21.90;99.90
28677;DHT22;15858;48.338;11.078;2022-09-01T12:31:00;21.70;99.90
28677;DHT22;15858;48.338;11.078;2022-09-01T12:33:33;21.40;99.90
28677;DHT22;15858;48.338;11.078;2022-09-01T12:36:29;21.40;99.90
28677;DHT22;15858;48.338;11.078;2022-09-01T12:41:44;21.60;99.90
28677;DHT22;15858;48.338;11.078;2022-09-01T12:44:40;21.40;99.90
28677;DHT22;15858;48.338;11.078;2022-09-01T12:47:10;21.70;99.90
28677;DHT22;15858;48.338;11.078;2022-09-01T12:49:47;22.10;99.90
28677;DHT22;15858;48.338;11.078;2022-09-01T12:54:47;22.60;99.90
28677;DHT22;15858;48.338;11.078;2022-09-01T13:03:04;22.40;99.90
28677;DHT22;15858;48.338;11.078;2022-09-01T13:08:13;22.60;99.90
28677;DHT22;15858;48.338;11.078;2022-09-01T13:10:47;22.90;99.90
28677;DHT22;15858;48.338;11.078;2022-09-01T13:13:16;22.90;99.90
28677;DHT22;15858;48.338;11.078;2022-09-01T13:15:47;22.90;99.90
28677;DHT22;15858;48.338;11.078;2022-09-01T13:18:15;22.80;99.90
28677;DHT22;15858;48.338;11.078;2022-09-01T13:20:43;22.70;99.90
28677;DHT22;15858;48.338;11.078;2022-09-01T13:23:09;22.60;99.90
28677;DHT22;15858;48.338;11.078;2022-09-01T13:25:36;22.30;99.90
28677;DHT22;15858;48.338;11.078;2022-09-01T13:28:03;22.30;99.90
28677;DHT22;15858;48.338;11.078;2022-09-01T13:30:30;22.10;99.90
28677;DHT22;15858;48.338;11.078;2022-09-01T13:32:56;22.30;99.90
28677;DHT22;15858;48.338;11.078;2022-09-01T13:35:43;22.30;99.90
28677;DHT22;15858;48.338;11.078;2022-09-01T13:38:10;22.60;99.90
28677;DHT22;15858;48.338;11.078;2022-09-01T13:40:36;22.60;99.90
28677;DHT22;15858;48.338;11.078;2022-09-01T13:43:03;22.40;99.90
28677;DHT22;15858;48.338;11.078;2022-09-01T13:45:30;22.70;99.90
28677;DHT22;15858;48.338;11.078;2022-09-01T13:47:57;22.90;99.90
28677;DHT22;15858;48.338;11.078;2022-09-01T13:50:48;22.90;99.90
28677;DHT22;15858;48.338;11.078;2022-09-01T13:53:35;22.80;99.90
28677;DHT22;15858;48.338;11.078;2022-09-01T13:56:03;23.00;99.90
28677;DHT22;15858;48.338;11.078;2022-09-01T13:58:30;22.80;99.90
28677;DHT22;15858;48.338;11.078;2022-09-01T14:00:56;22.40;99.90
28677;DHT22;15858;48.338;11.078;2022-09-01T14:03:23;22.30;99.90
28677;DHT22;15858;48.338;11.078;2022-09-01T14:05:50;22.20;99.90
28677;DHT22;15858;48.338;11.078;2022-09-01T14:08:18;22.00;99.90
28677;DHT22;15858;48.338;11.078;2022-09-01T14:10:48;22.10;99.90
28677;DHT22;15858;48.338;11.078;2022-09-01T14:13:15;22.00;99.90
28677;DHT22;15858;48.338;11.078;2022-09-01T14:15:42;21.90;99.90
28677;DHT22;15858;48.338;11.078;2022-09-01T14:18:09;21.90;99.90
28677;DHT22;15858;48.338;11.078;2022-09-01T14:20:37;21.90;99.90
28677;DHT22;15858;48.338;11.078;2022-09-01T14:23:06;22.10;99.90
28677;DHT22;15858;48.338;11.078;2022-09-01T14:25:33;22.10;99.90
28677;DHT22;15858;48.338;11.078;2022-09-01T14:28:01;22.00;99.90
28677;DHT22;15858;48.338;11.078;2022-09-01T14:30:29;21.80;99.90
28677;DHT22;15858;48.338;11.078;2022-09-01T14:32:58;21.70;99.90
28677;DHT22;15858;48.338;11.078;2022-09-01T14:35:25;21.70;99.90
28677;DHT22;15858;48.338;11.078;2022-09-01T14:37:53;21.60;99.90
28677;DHT22;15858;48.338;11.078;2022-09-01T14:40:21;21.80;99.90
28677;DHT22;15858;48.338;11.078;2022-09-01T14:42:50;21.70;99.90
28677;DHT22;15858;48.338;11.078;2022-09-01T14:45:19;21.80;99.90
28677;DHT22;15858;48.338;11.078;2022-09-01T14:47:48;21.70;99.90
28677;DHT22;15858;48.338;11.078;2022-09-01T14:50:16;21.60;99.90
28677;DHT22;15858;48.338;11.078;2022-09-01T14:52:51;21.60;99.90
28677;DHT22;15858;48.338;11.078;2022-09-01T14:55:19;21.40;99.90
28677;DHT22;15858;48.338;11.078;2022-09-01T14:57:45;21.30;99.90
28677;DHT22;15858;48.338;11.078;2022-09-01T15:00:12;21.50;99.90
28677;DHT22;15858;48.338;11.078;2022-09-01T15:02:41;21.40;99.90
28677;DHT22;15858;48.338;11.078;2022-09-01T15:05:10;21.30;99.90
28677;DHT22;15858;48.338;11.078;2022-09-01T15:07:37;21.20;99.90
28677;DHT22;15858;48.338;11.078;2022-09-01T15:10:06;21.20;99.90
28677;DHT22;15858;48.338;11.078;2022-09-01T15:12:33;21.20;99.90
28677;DHT22;15858;48.338;11.078;2022-09-01T15:15:00;21.40;99.90
28677;DHT22;15858;48.338;11.078;2022-09-01T15:17:28;21.40;99.90
28677;DHT22;15858;48.338;11.078;2022-09-01T15:19:55;21.20;99.90
28677;DHT22;15858;48.338;11.078;2022-09-01T15:22:21;21.30;99.90
28677;DHT22;15858;48.338;11.078;2022-09-01T15:24:48;21.30;99.90
28677;DHT22;15858;48.338;11.078;2022-09-01T15:27:14;21.30;99.90
28677;DHT22;15858;48.338;11.078;2022-09-01T15:29:41;21.30;99.90
28677;DHT22;15858;48.338;11.078;2022-09-01T15:32:08;21.30;99.90
28677;DHT22;15858;48.338;11.078;2022-09-01T15:34:46;21.40;99.90
28677;DHT22;15858;48.338;11.078;2022-09-01T15:37:14;21.30;99.90
28677;DHT22;15858;48.338;11.078;2022-09-01T15:39:41;21.40;99.90
28677;DHT22;15858;48.338;11.078;2022-09-01T15:42:07;21.30;99.90
28677;DHT22;15858;48.338;11.078;2022-09-01T15:44:34;21.40;99.90
28677;DHT22;15858;48.338;11.078;2022-09-01T15:47:01;21.40;99.90
28677;DHT22;15858;48.338;11.078;2022-09-01T15:49:27;21.40;99.90
28677;DHT22;15858;48.338;11.078;2022-09-01T15:51:55;21.30;99.90
28677;DHT22;15858;48.338;11.078;2022-09-01T15:54:21;21.30;99.90
28677;DHT22;15858;48.338;11.078;2022-09-01T15:56:53;21.30;99.90
28677;DHT22;15858;48.338;11.078;2022-09-01T15:59:20;21.50;99.90
28677;DHT22;15858;48.338;11.078;2022-09-01T16:01:47;21.60;99.90
28677;DHT22;15858;48.338;11.078;2022-09-01T16:04:15;21.70;99.90
28677;DHT22;15858;48.338;11.078;2022-09-01T16:06:45;21.70;99.90
28677;DHT22;15858;48.338;11.078;2022-09-01T16:09:12;21.70;99.90
28677;DHT22;15858;48.338;11.078;2022-09-01T16:11:39;21.60;99.90
28677;DHT22;15858;48.338;11.078;2022-09-01T16:14:06;21.70;99.90
28677;DHT22;15858;48.338;11.078;2022-09-01T16:19:20;21.80;99.90
28677;DHT22;15858;48.338;11.078;2022-09-01T16:22:09;21.90;99.90
28677;DHT22;15858;48.338;11.078;2022-09-01T16:24:45;22.00;99.90
28677;DHT22;15858;48.338;11.078;2022-09-01T16:27:15;21.90;99.90
28677;DHT22;15858;48.338;11.078;2022-09-01T16:29:49;21.60;99.90
28677;DHT22;15858;48.338;11.078;2022-09-01T16:32:16;21.60;99.90
28677;DHT22;15858;48.338;11.078;2022-09-01T16:34:43;21.40;99.90
28677;DHT22;15858;48.338;11.078;2022-09-01T16:40:36;21.20;99.90
28677;DHT22;15858;48.338;11.078;2022-09-01T16:43:25;21.10;99.90
28677;DHT22;15858;48.338;11.078;2022-09-01T16:48:52;20.90;99.90
28677;DHT22;15858;48.338;11.078;2022-09-01T16:51:32;20.70;99.90
28677;DHT22;15858;48.338;11.078;2022-09-01T17:00:39;20.50;99.90
28677;DHT22;15858;48.338;11.078;2022-09-01T17:03:15;20.30;99.90
28677;DHT22;15858;48.338;11.078;2022-09-01T17:08:20;20.20;99.90
28677;DHT22;15858;48.338;11.078;2022-09-01T17:10:54;20.10;99.90
28677;DHT22;15858;48.338;11.078;2022-09-01T17:13:41;20.00;99.90
28677;DHT22;15858;48.338;11.078;2022-09-01T17:16:27;20.00;99.90